sensor_id;sensor_type;location;lat;lon;timestamp;pressure;altitude;pressure_sealevel;temperature;humidity
25722;BME280;13578;53.450;15.496;2024-03-02T00:01:04;98980.72;;;8.91;100.00
25722;BME280;13578;53.450;15.496;2024-03-02T00:04:05;98974.25;;;8.92;100.00
25722;BME280;13578;53.450;15.496;2024-03-02T00:07:07;98976.81;;;9.03;100.00
25722;BME280;13578;53.450;15.496;2024-03-02T00:10:09;98978.28;;;8.98;100.00
25722;BME280;13578;53.450;15.496;2024-03-02T00:13:13;98966.97;;;9.11;100.00
25722;BME280;13578;53.450;15.496;2024-03-02T00:16:14;98979.41;;;9.05;100.00
25722;BME280;13578;53.450;15.496;2024-03-02T00:19:16;98976.34;;;9.08;100.00
25722;BME280;13578;53.450;15.496;2024-03-02T00:22:17;98971.31;;;9.03;100.00
25722;BME280;13578;53.450;15.496;2024-03-02T00:25:18;98965.44;;;8.98;100.00
25722;BME280;13578;53.450;15.496;2024-03-02T00:28:23;98970.06;;;8.98;100.00
25722;BME280;13578;53.450;15.496;2024-03-02T00:31:25;98956.34;;;9.08;100.00
25722;BME280;13578;53.450;15.496;2024-03-02T00:34:25;98958.38;;;9.05;100.00
25722;BME280;13578;53.450;15.496;2024-03-02T00:37:26;98953.28;;;9.11;100.00
25722;BME280;13578;53.450;15.496;2024-03-02T00:40:28;98965.72;;;9.05;100.00
25722;BME280;13578;53.450;15.496;2024-03-02T00:43:50;98953.84;;;9.14;100.00
25722;BME280;13578;53.450;15.496;2024-03-02T00:46:55;98954.34;;;9.10;100.00
25722;BME280;13578;53.450;15.496;2024-03-02T00:49:55;98946.47;;;9.25;100.00
25722;BME280;13578;53.450;15.496;2024-03-02T00:52:56;98941.78;;;9.17;100.00
25722;BME280;13578;53.450;15.496;2024-03-02T00:55:57;98942.19;;;9.22;100.00
25722;BME280;13578;53.450;15.496;2024-03-02T00:58:58;98937.25;;;9.26;100.00
25722;BME280;13578;53.450;15.496;2024-03-02T01:01:58;98936.88;;;9.20;100.00
25722;BME280;13578;53.450;15.496;2024-03-02T01:04:59;98932.22;;;9.21;100.00
25722;BME280;13578;53.450;15.496;2024-03-02T01:08:00;98929.22;;;9.14;100.00
25722;BME280;13578;53.450;15.496;2024-03-02T01:11:01;98925.63;;;9.14;100.00
25722;BME280;13578;53.450;15.496;2024-03-02T01:14:02;98915.97;;;9.19;100.00
25722;BME280;13578;53.450;15.496;2024-03-02T01:17:02;98919.75;;;9.09;100.00
25722;BME280;13578;53.450;15.496;2024-03-02T01:20:08;98922.91;;;9.14;100.00
25722;BME280;13578;53.450;15.496;2024-03-02T01:23:08;98914.69;;;9.14;100.00
25722;BME280;13578;53.450;15.496;2024-03-02T01:26:10;98910.63;;;9.18;100.00
25722;BME280;13578;53.450;15.496;2024-03-02T01:29:10;98906.47;;;9.14;100.00
25722;BME280;13578;53.450;15.496;2024-03-02T01:32:11;98909.78;;;9.17;100.00
25722;BME280;13578;53.450;15.496;2024-03-02T01:35:12;98910.63;;;9.18;100.00
25722;BME280;13578;53.450;15.496;2024-03-02T01:38:13;98904.47;;;9.16;100.00
25722;BME280;13578;53.450;15.496;2024-03-02T01:41:14;98907.81;;;9.10;100.00
25722;BME280;13578;53.450;15.496;2024-03-02T01:44:14;98897.88;;;9.09;100.00
25722;BME280;13578;53.450;15.496;2024-03-02T01:47:15;98897.53;;;9.12;100.00
25722;BME280;13578;53.450;15.496;2024-03-02T01:50:24;98893.19;;;9.19;100.00
25722;BME280;13578;53.450;15.496;2024-03-02T01:53:25;98883.97;;;9.20;100.00
25722;BME280;13578;53.450;15.496;2024-03-02T01:56:26;98880.94;;;9.23;100.00
25722;BME280;13578;53.450;15.496;2024-03-02T01:59:27;98873.44;;;9.25;100.00
25722;BME280;13578;53.450;15.496;2024-03-02T02:02:28;98890.63;;;9.17;100.00
25722;BME280;13578;53.450;15.496;2024-03-02T02:05:29;98879.81;;;9.16;100.00
25722;BME280;13578;53.450;15.496;2024-03-02T02:08:29;98874.75;;;9.21;100.00
25722;BME280;13578;53.450;15.496;2024-03-02T02:11:30;98869.56;;;9.18;100.00
25722;BME280;13578;53.450;15.496;2024-03-02T02:14:31;98862.22;;;9.18;100.00
25722;BME280;13578;53.450;15.496;2024-03-02T02:17:31;98858.22;;;9.13;100.00
25722;BME280;13578;53.450;15.496;2024-03-02T02:20:32;98852.84;;;9.21;100.00
25722;BME280;13578;53.450;15.496;2024-03-02T02:23:33;98862.78;;;9.22;100.00
25722;BME280;13578;53.450;15.496;2024-03-02T02:26:34;98861.69;;;9.15;100.00
25722;BME280;13578;53.450;15.496;2024-03-02T02:29:35;98855.03;;;9.17;100.00
25722;BME280;13578;53.450;15.496;2024-03-02T02:32:35;98863.06;;;9.19;100.00
25722;BME280;13578;53.450;15.496;2024-03-02T02:35:36;98862.16;;;9.28;100.00
25722;BME280;13578;53.450;15.496;2024-03-02T02:38:45;98854.56;;;9.22;100.00
25722;BME280;13578;53.450;15.496;2024-03-02T02:41:47;98847.09;;;9.14;100.00
25722;BME280;13578;53.450;15.496;2024-03-02T02:44:47;98847.09;;;9.14;100.00
25722;BME280;13578;53.450;15.496;2024-03-02T02:47:49;98851.28;;;9.18;100.00
25722;BME280;13578;53.450;15.496;2024-03-02T02:50:50;98849.72;;;9.16;100.00
25722;BME280;13578;53.450;15.496;2024-03-02T02:53:51;98845.09;;;9.16;100.00
25722;BME280;13578;53.450;15.496;2024-03-02T02:56:51;98851.28;;;9.18;100.00
25722;BME280;13578;53.450;15.496;2024-03-02T02:59:52;98857.75;;;9.17;100.00
25722;BME280;13578;53.450;15.496;2024-03-02T03:02:53;98849.72;;;9.16;100.00
25722;BME280;13578;53.450;15.496;2024-03-02T03:05:53;98849.72;;;9.16;100.00
25722;BME280;13578;53.450;15.496;2024-03-02T03:08:54;98854.47;;;9.14;100.00
25722;BME280;13578;53.450;15.496;2024-03-02T03:11:54;98849.84;;;9.14;100.00
25722;BME280;13578;53.450;15.496;2024-03-02T03:14:55;98845.97;;;9.17;100.00
25722;BME280;13578;53.450;15.496;2024-03-02T03:17:56;98849.72;;;9.16;100.00
25722;BME280;13578;53.450;15.496;2024-03-02T03:20:56;98848.28;;;9.12;100.00
25722;BME280;13578;53.450;15.496;2024-03-02T03:23:57;98847.81;;;9.16;100.00
25722;BME280;13578;53.450;15.496;2024-03-02T03:26:58;98845.25;;;9.15;100.00
25722;BME280;13578;53.450;15.496;2024-03-02T03:29:58;98847.66;;;9.18;100.00
25722;BME280;13578;53.450;15.496;2024-03-02T03:32:59;98844.31;;;9.06;100.00
25722;BME280;13578;53.450;15.496;2024-03-02T03:36:00;98849.72;;;9.16;100.00
25722;BME280;13578;53.450;15.496;2024-03-02T03:39:03;98842.84;;;9.02;100.00
25722;BME280;13578;53.450;15.496;2024-03-02T03:42:05;98846.56;;;9.11;100.00
25722;BME280;13578;53.450;15.496;2024-03-02T03:45:06;98848.59;;;9.09;100.00
25722;BME280;13578;53.450;15.496;2024-03-02T03:48:07;98849.56;;;9.17;100.00
25722;BME280;13578;53.450;15.496;2024-03-02T03:51:08;98851.00;;;9.12;100.00
25722;BME280;13578;53.450;15.496;2024-03-02T03:54:08;98854.91;;;9.09;100.00
25722;BME280;13578;53.450;15.496;2024-03-02T03:57:11;98859.66;;;9.17;100.00
25722;BME280;13578;53.450;15.496;2024-03-02T04:00:12;98865.81;;;9.19;100.00
25722;BME280;13578;53.450;15.496;2024-03-02T04:03:13;98868.41;;;9.20;100.00
25722;BME280;13578;53.450;15.496;2024-03-02T04:06:13;98874.81;;;9.11;100.00
25722;BME280;13578;53.450;15.496;2024-03-02T04:09:16;98869.94;;;9.05;100.00
25722;BME280;13578;53.450;15.496;2024-03-02T04:12:17;98869.38;;;9.01;100.00
25722;BME280;13578;53.450;15.496;2024-03-02T04:15:18;98851.94;;;9.02;100.00
25722;BME280;13578;53.450;15.496;2024-03-02T04:18:19;98868.66;;;8.99;100.00
25722;BME280;13578;53.450;15.496;2024-03-02T04:21:20;98872.34;;;9.08;100.00
25722;BME280;13578;53.450;15.496;2024-03-02T04:24:20;98867.94;;;8.97;100.00
25722;BME280;13578;53.450;15.496;2024-03-02T04:27:21;98864.75;;;9.02;100.00
25722;BME280;13578;53.450;15.496;2024-03-02T04:30:22;98874.28;;;8.98;100.00
25722;BME280;13578;53.450;15.496;2024-03-02T04:33:23;98877.47;;;8.93;100.00
25722;BME280;13578;53.450;15.496;2024-03-02T04:36:23;98870.38;;;9.00;100.00
25722;BME280;13578;53.450;15.496;2024-03-02T04:39:24;98870.56;;;8.89;100.00
25722;BME280;13578;53.450;15.496;2024-03-02T04:42:25;98867.81;;;8.89;100.00
25722;BME280;13578;53.450;15.496;2024-03-02T04:45:26;98859.94;;;8.86;100.00
25722;BME280;13578;53.450;15.496;2024-03-02T04:48:26;98859.94;;;8.86;100.00
25722;BME280;13578;53.450;15.496;2024-03-02T04:51:27;98857.50;;;8.83;100.00
25722;BME280;13578;53.450;15.496;2024-03-02T04:54:28;98857.69;;;8.71;100.00
25722;BME280;13578;53.450;15.496;2024-03-02T04:57:28;98853.91;;;8.82;100.00
25722;BME280;13578;53.450;15.496;2024-03-02T05:00:29;98855.06;;;8.80;100.00
25722;BME280;13578;53.450;15.496;2024-03-02T05:03:30;98852.47;;;8.78;100.00
25722;BME280;13578;53.450;15.496;2024-03-02T05:06:30;98860.66;;;8.88;100.00
25722;BME280;13578;53.450;15.496;2024-03-02T05:09:31;98859.06;;;8.85;100.00
25722;BME280;13578;53.450;15.496;2024-03-02T05:12:32;98862.97;;;8.83;100.00
25722;BME280;13578;53.450;15.496;2024-03-02T05:15:56;98858.38;;;8.83;100.00
25722;BME280;13578;53.450;15.496;2024-03-02T05:18:56;98857.50;;;8.83;100.00
25722;BME280;13578;53.450;15.496;2024-03-02T05:21:57;98865.00;;;8.81;100.00
25722;BME280;13578;53.450;15.496;2024-03-02T05:24:58;98860.22;;;8.83;100.00
25722;BME280;13578;53.450;15.496;2024-03-02T05:28:00;98868.44;;;8.83;100.00
25722;BME280;13578;53.450;15.496;2024-03-02T05:31:01;98859.41;;;8.72;100.00
25722;BME280;13578;53.450;15.496;2024-03-02T05:34:01;98866.00;;;8.80;100.00
25722;BME280;13578;53.450;15.496;2024-03-02T05:37:03;98855.13;;;8.70;100.00
25722;BME280;13578;53.450;15.496;2024-03-02T05:40:04;98869.44;;;8.82;100.00
25722;BME280;13578;53.450;15.496;2024-03-02T05:43:06;98872.63;;;8.87;100.00
25722;BME280;13578;53.450;15.496;2024-03-02T05:46:06;98876.63;;;8.83;100.00
25722;BME280;13578;53.450;15.496;2024-03-02T05:49:07;98872.66;;;8.77;100.00
25722;BME280;13578;53.450;15.496;2024-03-02T05:52:08;98878.09;;;8.87;100.00
25722;BME280;13578;53.450;15.496;2024-03-02T05:55:09;98876.63;;;8.83;100.00
25722;BME280;13578;53.450;15.496;2024-03-02T05:58:09;98881.50;;;8.89;100.00
25722;BME280;13578;53.450;15.496;2024-03-02T06:01:28;98890.88;;;8.86;100.00
25722;BME280;13578;53.450;15.496;2024-03-02T06:04:29;98895.78;;;8.83;100.00
25722;BME280;13578;53.450;15.496;2024-03-02T06:07:30;98890.47;;;8.81;100.00
25722;BME280;13578;53.450;15.496;2024-03-02T06:10:31;98906.03;;;8.81;100.00
25722;BME280;13578;53.450;15.496;2024-03-02T06:13:31;98899.84;;;8.79;100.00
25722;BME280;13578;53.450;15.496;2024-03-02T06:16:32;98902.03;;;8.75;100.00
25722;BME280;13578;53.450;15.496;2024-03-02T06:19:33;98904.59;;;8.77;100.00
25722;BME280;13578;53.450;15.496;2024-03-02T06:22:34;98918.56;;;8.83;100.00
25722;BME280;13578;53.450;15.496;2024-03-02T06:25:35;98914.94;;;8.83;100.00
25722;BME280;13578;53.450;15.496;2024-03-02T06:28:35;98914.94;;;8.83;100.00
25722;BME280;13578;53.450;15.496;2024-03-02T06:31:36;98920.13;;;8.86;100.00
25722;BME280;13578;53.450;15.496;2024-03-02T06:34:37;98922.16;;;8.84;100.00
25722;BME280;13578;53.450;15.496;2024-03-02T06:37:38;98927.78;;;8.82;100.00
25722;BME280;13578;53.450;15.496;2024-03-02T06:40:40;98928.94;;;8.80;100.00
25722;BME280;13578;53.450;15.496;2024-03-02T06:43:41;98934.09;;;8.83;100.00
25722;BME280;13578;53.450;15.496;2024-03-02T06:46:41;98929.63;;;8.82;100.00
25722;BME280;13578;53.450;15.496;2024-03-02T06:49:42;98935.22;;;8.90;100.00
25722;BME280;13578;53.450;15.496;2024-03-02T06:52:43;98935.81;;;8.84;100.00
25722;BME280;13578;53.450;15.496;2024-03-02T06:55:44;98936.50;;;8.96;100.00
25722;BME280;13578;53.450;15.496;2024-03-02T06:58:45;98942.31;;;8.83;100.00
25722;BME280;13578;53.450;15.496;2024-03-02T07:01:45;98946.28;;;8.98;100.00
25722;BME280;13578;53.450;15.496;2024-03-02T07:04:46;98952.09;;;8.95;100.00
25722;BME280;13578;53.450;15.496;2024-03-02T07:07:47;98954.09;;;8.93;100.00
25722;BME280;13578;53.450;15.496;2024-03-02T07:10:47;98960.41;;;8.94;100.00
25722;BME280;13578;53.450;15.496;2024-03-02T07:13:48;98964.03;;;8.94;100.00
25722;BME280;13578;53.450;15.496;2024-03-02T07:16:49;98966.63;;;8.96;100.00
25722;BME280;13578;53.450;15.496;2024-03-02T07:19:49;98969.06;;;8.89;100.00
25722;BME280;13578;53.450;15.496;2024-03-02T07:22:50;98971.69;;;8.90;100.00
25722;BME280;13578;53.450;15.496;2024-03-02T07:25:50;98965.03;;;8.93;100.00
25722;BME280;13578;53.450;15.496;2024-03-02T07:28:51;98972.53;;;8.91;100.00
25722;BME280;13578;53.450;15.496;2024-03-02T07:31:52;98974.81;;;8.96;100.00
25722;BME280;13578;53.450;15.496;2024-03-02T07:34:52;98974.41;;;8.90;100.00
25722;BME280;13578;53.450;15.496;2024-03-02T07:37:53;98985.56;;;9.07;100.00
25722;BME280;13578;53.450;15.496;2024-03-02T07:40:55;98992.66;;;9.00;100.00
25722;BME280;13578;53.450;15.496;2024-03-02T07:43:56;98986.06;;;8.93;100.00
25722;BME280;13578;53.450;15.496;2024-03-02T07:46:57;98980.56;;;9.02;100.00
25722;BME280;13578;53.450;15.496;2024-03-02T07:49:57;98980.69;;;9.01;100.00
25722;BME280;13578;53.450;15.496;2024-03-02T07:52:58;98973.94;;;9.05;100.00
25722;BME280;13578;53.450;15.496;2024-03-02T07:55:59;98979.97;;;9.09;100.00
25722;BME280;13578;53.450;15.496;2024-03-02T07:59:03;98987.44;;;9.16;100.00
25722;BME280;13578;53.450;15.496;2024-03-02T08:02:04;98974.41;;;9.28;100.00
25722;BME280;13578;53.450;15.496;2024-03-02T08:05:05;98990.56;;;9.31;100.00
25722;BME280;13578;53.450;15.496;2024-03-02T08:08:06;99000.16;;;9.45;100.00
25722;BME280;13578;53.450;15.496;2024-03-02T08:11:06;99006.38;;;9.37;100.00
25722;BME280;13578;53.450;15.496;2024-03-02T08:14:07;98995.13;;;9.41;100.00
25722;BME280;13578;53.450;15.496;2024-03-02T08:17:08;99004.72;;;9.54;100.00
25722;BME280;13578;53.450;15.496;2024-03-02T08:20:10;99006.34;;;9.47;100.00
25722;BME280;13578;53.450;15.496;2024-03-02T08:23:11;99010.50;;;9.51;100.00
25722;BME280;13578;53.450;15.496;2024-03-02T08:26:12;99017.09;;;9.59;100.00
25722;BME280;13578;53.450;15.496;2024-03-02T08:29:13;99020.38;;;9.62;100.00
25722;BME280;13578;53.450;15.496;2024-03-02T08:32:14;99025.97;;;9.70;100.00
25722;BME280;13578;53.450;15.496;2024-03-02T08:35:15;99033.34;;;9.70;100.00
25722;BME280;13578;53.450;15.496;2024-03-02T08:38:15;99026.13;;;9.69;100.00
25722;BME280;13578;53.450;15.496;2024-03-02T08:41:16;99025.84;;;9.72;100.00
25722;BME280;13578;53.450;15.496;2024-03-02T08:44:17;99038.78;;;9.80;100.00
25722;BME280;13578;53.450;15.496;2024-03-02T08:47:18;99044.97;;;9.82;100.00
25722;BME280;13578;53.450;15.496;2024-03-02T08:50:18;99055.16;;;9.90;100.00
25722;BME280;13578;53.450;15.496;2024-03-02T08:53:20;99057.06;;;9.89;100.00
25722;BME280;13578;53.450;15.496;2024-03-02T08:56:20;99060.66;;;9.90;100.00
25722;BME280;13578;53.450;15.496;2024-03-02T08:59:22;99056.03;;;9.90;100.00
25722;BME280;13578;53.450;15.496;2024-03-02T09:02:23;99060.34;;;9.93;100.00
25722;BME280;13578;53.450;15.496;2024-03-02T09:05:23;99059.19;;;9.95;100.00
25722;BME280;13578;53.450;15.496;2024-03-02T09:08:24;99064.03;;;10.01;100.00
25722;BME280;13578;53.450;15.496;2024-03-02T09:11:24;99075.56;;;10.05;100.00
25722;BME280;13578;53.450;15.496;2024-03-02T09:14:25;99084.25;;;10.00;100.00
25722;BME280;13578;53.450;15.496;2024-03-02T09:17:26;99086.84;;;10.02;100.00
25722;BME280;13578;53.450;15.496;2024-03-02T09:20:27;99098.97;;;9.99;100.00
25722;BME280;13578;53.450;15.496;2024-03-02T09:23:27;99099.44;;;9.95;100.00
25722;BME280;13578;53.450;15.496;2024-03-02T09:26:28;99087.31;;;9.97;100.00
25722;BME280;13578;53.450;15.496;2024-03-02T09:29:28;99098.06;;;10.09;100.00
25722;BME280;13578;53.450;15.496;2024-03-02T09:32:29;99100.78;;;10.09;100.00
25722;BME280;13578;53.450;15.496;2024-03-02T09:35:31;99106.00;;;10.12;100.00
25722;BME280;13578;53.450;15.496;2024-03-02T09:38:32;99099.94;;;10.08;100.00
25722;BME280;13578;53.450;15.496;2024-03-02T09:41:34;99110.13;;;10.16;100.00
25722;BME280;13578;53.450;15.496;2024-03-02T09:44:34;99108.56;;;10.13;100.00
25722;BME280;13578;53.450;15.496;2024-03-02T09:47:35;99112.16;;;10.14;100.00
25722;BME280;13578;53.450;15.496;2024-03-02T09:50:36;99121.38;;;10.23;100.00
25722;BME280;13578;53.450;15.496;2024-03-02T09:53:37;99115.94;;;10.13;100.00
25722;BME280;13578;53.450;15.496;2024-03-02T09:56:38;99126.84;;;10.23;100.00
25722;BME280;13578;53.450;15.496;2024-03-02T09:59:39;99120.81;;;10.19;100.00
25722;BME280;13578;53.450;15.496;2024-03-02T10:02:43;99128.78;;;10.12;100.00
25722;BME280;13578;53.450;15.496;2024-03-02T10:05:43;99123.28;;;10.12;100.00
25722;BME280;13578;53.450;15.496;2024-03-02T10:08:44;99133.50;;;10.20;100.00
25722;BME280;13578;53.450;15.496;2024-03-02T10:11:45;99138.13;;;10.20;100.00
25722;BME280;13578;53.450;15.496;2024-03-02T10:14:45;99120.25;;;10.15;100.00
25722;BME280;13578;53.450;15.496;2024-03-02T10:17:48;99126.59;;;10.16;100.00
25722;BME280;13578;53.450;15.496;2024-03-02T10:20:49;99129.16;;;10.27;100.00
25722;BME280;13578;53.450;15.496;2024-03-02T10:23:50;99123.97;;;10.24;100.00
25722;BME280;13578;53.450;15.496;2024-03-02T10:26:51;99135.22;;;10.21;100.00
25722;BME280;13578;53.450;15.496;2024-03-02T10:29:52;99125.69;;;10.25;100.00
25722;BME280;13578;53.450;15.496;2024-03-02T10:32:56;99140.69;;;10.31;100.00
25722;BME280;13578;53.450;15.496;2024-03-02T10:35:56;99149.34;;;10.26;100.00
25722;BME280;13578;53.450;15.496;2024-03-02T10:38:57;99141.13;;;10.26;100.00
25722;BME280;13578;53.450;15.496;2024-03-02T10:42:00;99143.72;;;10.28;100.00
25722;BME280;13578;53.450;15.496;2024-03-02T10:45:05;99142.69;;;10.29;100.00
25722;BME280;13578;53.450;15.496;2024-03-02T10:48:07;99148.78;;;10.23;100.00
25722;BME280;13578;53.450;15.496;2024-03-02T10:51:08;99139.22;;;10.27;100.00
25722;BME280;13578;53.450;15.496;2024-03-02T10:54:08;99145.13;;;10.32;100.00
25722;BME280;13578;53.450;15.496;2024-03-02T10:57:10;99139.78;;;10.30;100.00
25722;BME280;13578;53.450;15.496;2024-03-02T11:00:12;99141.81;;;10.28;100.00
25722;BME280;13578;53.450;15.496;2024-03-02T11:03:16;99142.44;;;10.22;100.00
25722;BME280;13578;53.450;15.496;2024-03-02T11:06:17;99138.50;;;10.25;100.00
25722;BME280;13578;53.450;15.496;2024-03-02T11:09:20;99140.00;;;10.19;100.00
25722;BME280;13578;53.450;15.496;2024-03-02T11:13:22;99136.66;;;10.25;100.00
25722;BME280;13578;53.450;15.496;2024-03-02T11:15:55;99135.31;;;10.29;100.00
25722;BME280;13578;53.450;15.496;2024-03-02T11:18:58;99139.41;;;10.25;100.00
25722;BME280;13578;53.450;15.496;2024-03-02T11:21:59;99130.84;;;10.38;100.00
25722;BME280;13578;53.450;15.496;2024-03-02T11:25:00;99141.50;;;10.41;100.00
25722;BME280;13578;53.450;15.496;2024-03-02T11:28:05;99135.38;;;10.47;100.00
25722;BME280;13578;53.450;15.496;2024-03-02T11:31:06;99145.00;;;10.61;100.00
25722;BME280;13578;53.450;15.496;2024-03-02T11:34:37;99143.44;;;10.77;100.00
25722;BME280;13578;53.450;15.496;2024-03-02T11:37:39;99144.47;;;10.94;100.00
25722;BME280;13578;53.450;15.496;2024-03-02T11:40:40;99152.31;;;11.07;100.00
25722;BME280;13578;53.450;15.496;2024-03-02T11:43:42;99151.50;;;10.96;100.00
25722;BME280;13578;53.450;15.496;2024-03-02T11:47:06;99148.06;;;10.94;100.00
25722;BME280;13578;53.450;15.496;2024-03-02T11:50:10;99149.78;;;10.95;100.00
25722;BME280;13578;53.450;15.496;2024-03-02T11:53:11;99148.06;;;10.94;100.00
25722;BME280;13578;53.450;15.496;2024-03-02T11:56:13;99152.44;;;10.87;100.00
25722;BME280;13578;53.450;15.496;2024-03-02T11:59:14;99140.44;;;10.88;100.00
25722;BME280;13578;53.450;15.496;2024-03-02T12:02:17;99144.22;;;10.87;100.00
25722;BME280;13578;53.450;15.496;2024-03-02T12:05:19;99142.91;;;10.91;100.00
25722;BME280;13578;53.450;15.496;2024-03-02T12:08:19;99149.47;;;10.99;100.00
25722;BME280;13578;53.450;15.496;2024-03-02T12:11:21;99143.66;;;11.02;100.00
25722;BME280;13578;53.450;15.496;2024-03-02T12:14:22;99148.53;;;11.08;100.00
25722;BME280;13578;53.450;15.496;2024-03-02T12:17:22;99149.09;;;11.11;100.00
25722;BME280;13578;53.450;15.496;2024-03-02T12:20:24;99153.53;;;11.12;100.00
25722;BME280;13578;53.450;15.496;2024-03-02T12:23:25;99153.16;;;11.07;100.00
25722;BME280;13578;53.450;15.496;2024-03-02T12:26:26;99151.03;;;11.19;100.00
25722;BME280;13578;53.450;15.496;2024-03-02T12:29:27;99147.00;;;11.32;100.00
25722;BME280;13578;53.450;15.496;2024-03-02T12:32:27;99142.78;;;11.37;100.00
25722;BME280;13578;53.450;15.496;2024-03-02T12:35:28;99143.31;;;11.41;100.00
25722;BME280;13578;53.450;15.496;2024-03-02T12:38:30;99154.06;;;11.52;100.00
25722;BME280;13578;53.450;15.496;2024-03-02T12:41:31;99149.25;;;11.54;100.00
25722;BME280;13578;53.450;15.496;2024-03-02T12:44:31;99153.25;;;11.60;100.00
25722;BME280;13578;53.450;15.496;2024-03-02T12:47:33;99146.78;;;11.69;100.00
25722;BME280;13578;53.450;15.496;2024-03-02T12:50:34;99146.31;;;11.74;100.00
25722;BME280;13578;53.450;15.496;2024-03-02T12:53:35;99150.94;;;11.73;100.00
25722;BME280;13578;53.450;15.496;2024-03-02T12:56:37;99152.13;;;11.71;100.00
25722;BME280;13578;53.450;15.496;2024-03-02T12:59:37;99151.28;;;11.79;100.00
25722;BME280;13578;53.450;15.496;2024-03-02T13:02:42;99147.38;;;11.81;100.00
25722;BME280;13578;53.450;15.496;2024-03-02T13:05:48;99156.31;;;11.83;100.00
25722;BME280;13578;53.450;15.496;2024-03-02T13:08:49;99143.31;;;11.94;100.00
25722;BME280;13578;53.450;15.496;2024-03-02T13:11:49;99155.47;;;12.09;100.00
25722;BME280;13578;53.450;15.496;2024-03-02T13:14:53;99148.28;;;12.16;100.00
25722;BME280;13578;53.450;15.496;2024-03-02T13:17:54;99148.13;;;12.18;100.00
25722;BME280;13578;53.450;15.496;2024-03-02T13:20:58;99141.81;;;12.26;100.00
25722;BME280;13578;53.450;15.496;2024-03-02T13:23:59;99156.22;;;12.28;100.00
25722;BME280;13578;53.450;15.496;2024-03-02T13:27:00;99153.13;;;12.22;100.00
25722;BME280;13578;53.450;15.496;2024-03-02T13:30:04;99154.00;;;12.31;100.00
25722;BME280;13578;53.450;15.496;2024-03-02T13:33:09;99162.09;;;12.25;100.00
25722;BME280;13578;53.450;15.496;2024-03-02T13:36:09;99162.75;;;12.27;100.00
25722;BME280;13578;53.450;15.496;2024-03-02T13:39:10;99165.84;;;12.23;100.00
25722;BME280;13578;53.450;15.496;2024-03-02T13:42:11;99161.69;;;12.19;100.00
25722;BME280;13578;53.450;15.496;2024-03-02T13:45:14;99158.31;;;12.26;100.00
25722;BME280;13578;53.450;15.496;2024-03-02T13:48:15;99156.91;;;12.21;100.00
25722;BME280;13578;53.450;15.496;2024-03-02T13:51:15;99159.28;;;12.16;100.00
25722;BME280;13578;53.450;15.496;2024-03-02T13:54:16;99156.19;;;12.19;100.00
25722;BME280;13578;53.450;15.496;2024-03-02T13:57:16;99158.63;;;12.22;100.00
25722;BME280;13578;53.450;15.496;2024-03-02T14:00:20;99154.38;;;12.28;100.00
25722;BME280;13578;53.450;15.496;2024-03-02T14:03:21;99155.88;;;12.22;100.00
25722;BME280;13578;53.450;15.496;2024-03-02T14:06:21;99154.84;;;12.23;100.00
25722;BME280;13578;53.450;15.496;2024-03-02T14:09:22;99141.13;;;12.32;100.00
25722;BME280;13578;53.450;15.496;2024-03-02T14:12:23;99151.09;;;12.25;100.00
25722;BME280;13578;53.450;15.496;2024-03-02T14:15:24;99151.53;;;12.12;100.00
25722;BME280;13578;53.450;15.496;2024-03-02T14:18:24;99153.44;;;12.19;100.00
25722;BME280;13578;53.450;15.496;2024-03-02T14:21:25;99154.78;;;12.07;100.00
25722;BME280;13578;53.450;15.496;2024-03-02T14:24:26;99144.97;;;12.04;100.00
25722;BME280;13578;53.450;15.496;2024-03-02T14:27:28;99154.78;;;12.07;100.00
25722;BME280;13578;53.450;15.496;2024-03-02T14:30:29;99155.13;;;12.12;100.00
25722;BME280;13578;53.450;15.496;2024-03-02T14:33:29;99151.31;;;12.05;100.00
25722;BME280;13578;53.450;15.496;2024-03-02T14:36:30;99142.38;;;12.03;100.00
25722;BME280;13578;53.450;15.496;2024-03-02T14:39:31;99136.44;;;11.89;100.00
25722;BME280;13578;53.450;15.496;2024-03-02T14:42:35;99140.13;;;11.98;100.00
25722;BME280;13578;53.450;15.496;2024-03-02T14:45:36;99144.44;;;12.01;100.00
25722;BME280;13578;53.450;15.496;2024-03-02T14:48:37;99141.28;;;11.96;100.00
25722;BME280;13578;53.450;15.496;2024-03-02T14:51:38;99141.94;;;11.89;100.00
25722;BME280;13578;53.450;15.496;2024-03-02T14:54:39;99143.28;;;11.85;100.00
25722;BME280;13578;53.450;15.496;2024-03-02T14:57:39;99135.72;;;11.87;100.00
25722;BME280;13578;53.450;15.496;2024-03-02T15:00:40;99138.25;;;11.81;100.00
25722;BME280;13578;53.450;15.496;2024-03-02T15:03:40;99139.44;;;11.78;100.00
25722;BME280;13578;53.450;15.496;2024-03-02T15:06:41;99137.53;;;11.70;100.00
25722;BME280;13578;53.450;15.496;2024-03-02T15:09:42;99139.34;;;11.62;100.00
25722;BME280;13578;53.450;15.496;2024-03-02T15:12:43;99137.94;;;11.57;100.00
25722;BME280;13578;53.450;15.496;2024-03-02T15:15:43;99138.25;;;11.54;100.00
25722;BME280;13578;53.450;15.496;2024-03-02T15:18:44;99138.78;;;11.58;100.00
25722;BME280;13578;53.450;15.496;2024-03-02T15:21:46;99136.22;;;11.56;100.00
25722;BME280;13578;53.450;15.496;2024-03-02T15:24:46;99131.03;;;11.53;100.00
25722;BME280;13578;53.450;15.496;2024-03-02T15:27:47;99137.06;;;11.57;100.00
25722;BME280;13578;53.450;15.496;2024-03-02T15:30:48;99131.75;;;11.55;100.00
25722;BME280;13578;53.450;15.496;2024-03-02T15:33:48;99130.72;;;11.56;100.00
25722;BME280;13578;53.450;15.496;2024-03-02T15:36:50;99141.34;;;11.51;100.00
25722;BME280;13578;53.450;15.496;2024-03-02T15:39:51;99136.88;;;11.50;100.00
25722;BME280;13578;53.450;15.496;2024-03-02T15:42:51;99126.63;;;11.34;100.00